ENVR/VRY METAR and TAF weather

Enter ICAO airport designator
Station Type Date Time Source
ENVR METAR 2019/06/15 06:50 UTC NOAA

ENVR 150650Z 14003KT CAVOK 12/07 Q1018


Station Type Date Time Source
ENVR Decoded METAR 2019/06/15 06:50 UTC NOAA

Station name not available
Jun 15, 2019 - 02:50 AM EDT / 2019.06.15 0650 UTC
Wind: from the SE (140 degrees) at 3 MPH (3 KT):0
Visibility: greater than 7 mile(s):0
Temperature: 53 F (12 C)
Dew Point: 44 F (7 C)
Relative Humidity: 71%
Pressure (altimeter): 30.06 in. Hg (1018 hPa)
ob: ENVR 150650Z 14003KT CAVOK 12/07 Q1018
cycle: 7

Station Type Date Time Source
ENVR TAF UTC NOAA

Error!

Example: see airport list